Time;durP1;ratioP1;P1;durP2;ratioP2;P2;SDS_P1;SDS_P2;PMS_P1;PMS_P2;Temp;Humidity;BMP_temperature;BMP_pressure;BME280_temperature;BME280_humidity;BME280_pressure;Samples;Min_cycle;Max_cycle;Signal;HPM_P1;HPM_P2
2023/02/11 00:01:07;;;;;;;40.42;22.52;;;1.40;99.90;;;;;;4936964;29;20209;-80
2023/02/11 00:03:35;;;;;;;40.38;21.52;;;1.50;99.90;;;;;;4939166;29;20763;-81
2023/02/11 00:06:08;;;;;;;35.97;23.45;;;1.50;99.90;;;;;;4936026;29;20271;-82
2023/02/11 00:08:35;;;;;;;39.22;21.63;;;1.40;99.90;;;;;;4937475;29;20220;-82
2023/02/11 00:11:03;;;;;;;35.00;24.20;;;1.30;99.90;;;;;;4935154;29;20219;-80
2023/02/11 00:13:30;;;;;;;47.42;25.73;;;1.30;99.90;;;;;;4939413;29;20215;-80
2023/02/11 00:15:57;;;;;;;37.17;22.30;;;1.30;99.90;;;;;;4932182;29;20240;-79
2023/02/11 00:18:24;;;;;;;41.17;24.05;;;1.50;99.90;;;;;;4939975;29;20517;-80
2023/02/11 00:20:51;;;;;;;34.30;22.67;;;1.50;99.90;;;;;;4933333;29;20213;-82
2023/02/11 00:23:18;;;;;;;39.30;24.98;;;1.60;99.90;;;;;;4940248;29;20241;-80
2023/02/11 00:25:45;;;;;;;42.15;22.65;;;1.50;99.90;;;;;;4936815;29;20212;-80
2023/02/11 00:28:12;;;;;;;35.90;22.10;;;1.40;99.90;;;;;;4938870;29;20208;-82
2023/02/11 00:30:39;;;;;;;40.75;24.38;;;1.40;99.90;;;;;;4929047;29;20212;-82
2023/02/11 00:33:06;;;;;;;42.28;24.73;;;1.40;99.90;;;;;;4945349;29;20236;-81
2023/02/11 00:35:37;;;;;;;41.47;25.33;;;1.50;99.90;;;;;;4945198;29;20271;-81
2023/02/11 00:38:04;;;;;;;45.35;24.80;;;1.60;99.90;;;;;;4923472;29;20224;-82
2023/02/11 00:40:31;;;;;;;43.53;25.33;;;1.50;99.90;;;;;;4939337;29;20220;-81
2023/02/11 00:42:58;;;;;;;38.60;24.23;;;1.50;99.90;;;;;;4937153;29;20210;-81
2023/02/11 00:45:25;;;;;;;44.42;22.40;;;1.60;99.90;;;;;;4932553;29;20209;-81
2023/02/11 00:47:52;;;;;;;47.88;27.50;;;1.70;99.90;;;;;;4936262;29;20209;-81
2023/02/11 00:50:19;;;;;;;40.85;22.27;;;1.80;99.90;;;;;;4933911;29;20208;-79
2023/02/11 00:52:46;;;;;;;42.05;26.63;;;1.90;99.90;;;;;;4932326;29;20663;-79
2023/02/11 00:55:14;;;;;;;37.65;22.13;;;1.70;99.90;;;;;;4937465;29;20201;-81
2023/02/11 00:57:41;;;;;;;42.35;22.65;;;2.00;99.90;;;;;;4939505;29;20220;-81
2023/02/11 01:00:10;;;;;;;33.10;22.48;;;2.10;99.90;;;;;;4936949;29;20217;-82
2023/02/11 01:02:37;;;;;;;40.83;25.95;;;2.20;99.90;;;;;;4936748;29;20224;-81
2023/02/11 01:05:05;;;;;;;36.97;25.52;;;2.40;99.90;;;;;;4934445;29;20249;-80
2023/02/11 01:07:31;;;;;;;46.30;26.38;;;2.40;99.90;;;;;;4935368;29;20252;-79
2023/02/11 01:09:59;;;;;;;37.72;24.95;;;2.20;99.90;;;;;;4934944;29;20208;-80
2023/02/11 01:12:26;;;;;;;44.83;25.15;;;2.20;99.90;;;;;;4933289;29;20521;-82
2023/02/11 01:14:53;;;;;;;36.97;24.10;;;2.20;99.90;;;;;;4935571;29;20230;-81
2023/02/11 01:17:20;;;;;;;51.55;26.73;;;2.20;99.90;;;;;;4938812;29;20240;-81
2023/02/11 01:19:46;;;;;;;35.00;23.65;;;2.00;99.90;;;;;;4934112;29;20211;-80
2023/02/11 01:22:13;;;;;;;38.25;24.20;;;1.90;99.90;;;;;;4936503;29;20208;-81
2023/02/11 01:24:40;;;;;;;36.28;24.38;;;1.80;99.90;;;;;;4933973;29;20208;-82
2023/02/11 01:27:07;;;;;;;42.17;24.40;;;1.70;99.90;;;;;;4931053;29;20453;-80
2023/02/11 01:29:34;;;;;;;42.65;25.00;;;1.80;99.90;;;;;;4939963;29;20272;-80
2023/02/11 01:32:02;;;;;;;42.70;26.85;;;1.60;99.90;;;;;;4941653;29;20417;-81
2023/02/11 01:34:28;;;;;;;39.67;24.05;;;1.40;99.90;;;;;;4940808;29;20211;-81
2023/02/11 01:36:57;;;;;;;40.42;25.30;;;1.60;99.90;;;;;;4937992;29;20726;-82
2023/02/11 01:39:25;;;;;;;39.58;24.23;;;1.60;99.90;;;;;;4939448;29;20211;-79
2023/02/11 01:41:53;;;;;;;43.58;26.77;;;1.60;99.90;;;;;;4931714;29;20258;-82
2023/02/11 01:44:30;;;;;;;40.53;23.67;;;1.70;99.90;;;;;;4935623;29;20239;-82
2023/02/11 01:46:58;;;;;;;40.58;24.98;;;1.80;99.90;;;;;;4926979;29;20571;-82
2023/02/11 01:49:30;;;;;;;44.95;25.38;;;1.80;99.90;;;;;;4925104;29;20359;-81
2023/02/11 01:52:24;;;;;;;44.65;25.88;;;1.90;99.90;;;;;;4935126;29;20525;-82
2023/02/11 01:57:52;;;;;;;36.88;24.17;;;1.80;99.90;;;;;;4930837;29;20326;-81
2023/02/11 02:00:24;;;;;;;37.60;23.65;;;1.90;99.90;;;;;;4934889;29;20258;-82
2023/02/11 02:02:59;;;;;;;43.63;26.95;;;2.00;99.90;;;;;;4913106;29;20252;-83
2023/02/11 02:05:26;;;;;;;35.50;21.75;;;1.90;99.90;;;;;;4932433;29;20216;-79
2023/02/11 02:08:18;;;;;;;32.70;23.35;;;1.90;99.90;;;;;;4935998;29;20207;-83
2023/02/11 02:10:47;;;;;;;41.78;25.48;;;1.70;99.90;;;;;;4931171;29;20258;-83
2023/02/11 02:13:14;;;;;;;45.28;23.38;;;1.80;99.90;;;;;;4933101;29;20267;-83
2023/02/11 02:15:52;;;;;;;39.53;23.45;;;1.90;99.90;;;;;;4928940;29;20298;-83
2023/02/11 02:18:47;;;;;;;34.65;21.85;;;2.00;99.90;;;;;;4930298;29;20212;-81
2023/02/11 02:21:29;;;;;;;34.55;24.13;;;2.10;99.90;;;;;;4931382;29;20502;-82
2023/02/11 02:24:21;;;;;;;34.60;22.92;;;2.00;99.90;;;;;;4924791;29;20208;-81
2023/02/11 02:27:22;;;;;;;43.38;23.75;;;2.00;99.90;;;;;;4930419;29;20716;-82
2023/02/11 02:29:58;;;;;;;31.70;20.40;;;2.10;99.90;;;;;;4931641;29;20210;-81
2023/02/11 02:32:32;;;;;;;41.70;21.80;;;2.10;99.90;;;;;;4925308;29;20202;-81
2023/02/11 02:35:17;;;;;;;33.58;20.95;;;2.20;99.90;;;;;;4942816;29;20207;-80
2023/02/11 02:37:55;;;;;;;35.78;22.83;;;2.10;99.90;;;;;;4931740;29;20240;-81
2023/02/11 02:40:32;;;;;;;35.15;21.40;;;2.20;99.90;;;;;;4940180;29;20241;-83
2023/02/11 02:43:01;;;;;;;38.67;22.13;;;2.30;99.90;;;;;;4934011;29;20242;-80
2023/02/11 02:45:28;;;;;;;27.55;18.63;;;2.30;99.90;;;;;;4930339;29;20248;-80
2023/02/11 02:47:55;;;;;;;32.13;21.80;;;2.30;99.90;;;;;;4954151;29;20212;-80
2023/02/11 02:50:29;;;;;;;30.83;21.15;;;2.50;99.90;;;;;;4939398;29;20205;-83
2023/02/11 02:52:59;;;;;;;33.05;22.13;;;2.40;99.90;;;;;;4925033;29;20867;-78
2023/02/11 02:56:01;;;;;;;35.63;22.75;;;2.40;99.90;;;;;;4935390;29;20216;-79
2023/02/11 02:58:46;;;;;;;36.20;22.80;;;2.50;99.90;;;;;;4938635;29;20506;-81
2023/02/11 03:01:22;;;;;;;38.45;21.75;;;2.50;99.90;;;;;;4935380;29;20220;-79
2023/02/11 03:04:07;;;;;;;37.15;23.73;;;2.40;99.90;;;;;;4938223;29;20429;-79
2023/02/11 03:06:46;;;;;;;43.03;25.00;;;2.30;99.90;;;;;;4926250;29;20216;-79
2023/02/11 03:09:32;;;;;;;36.42;22.17;;;2.50;99.90;;;;;;4936916;29;20241;-79
2023/02/11 03:12:02;;;;;;;32.63;23.17;;;2.30;99.90;;;;;;4933433;29;20212;-82
2023/02/11 03:14:31;;;;;;;34.17;22.10;;;2.20;99.90;;;;;;4928596;29;20521;-81
2023/02/11 03:17:02;;;;;;;41.60;23.73;;;2.00;99.90;;;;;;4925564;29;20293;-80
2023/02/11 03:19:50;;;;;;;36.13;22.05;;;2.00;99.90;;;;;;4928801;29;20433;-81
2023/02/11 03:22:23;;;;;;;36.67;23.75;;;2.00;99.90;;;;;;4940947;29;20214;-82
2023/02/11 03:24:50;;;;;;;35.42;22.13;;;2.10;99.90;;;;;;4928799;29;20201;-81
2023/02/11 03:27:24;;;;;;;36.38;23.33;;;2.10;99.90;;;;;;4936945;29;20402;-81
2023/02/11 03:30:04;;;;;;;33.65;21.02;;;2.20;99.90;;;;;;4920474;29;20207;-81
2023/02/11 03:32:37;;;;;;;34.10;22.63;;;2.20;99.90;;;;;;4940889;29;20204;-80
2023/02/11 03:35:20;;;;;;;34.28;23.40;;;2.30;99.90;;;;;;4948612;29;20184;-79
2023/02/11 03:37:54;;;;;;;38.97;23.98;;;2.30;99.90;;;;;;4923453;29;20284;-79
2023/02/11 03:40:26;;;;;;;30.67;20.63;;;2.40;99.90;;;;;;4930553;29;20248;-80
2023/02/11 03:43:16;;;;;;;34.67;22.08;;;2.50;99.90;;;;;;4916189;29;20250;-80
2023/02/11 03:45:44;;;;;;;33.50;22.67;;;2.40;99.90;;;;;;4932451;29;20252;-81
2023/02/11 03:48:16;;;;;;;30.90;19.85;;;2.60;99.90;;;;;;4933528;29;20597;-79
2023/02/11 03:50:46;;;;;;;38.28;20.35;;;2.60;99.90;;;;;;4932344;29;20566;-79
2023/02/11 03:53:15;;;;;;;32.20;20.80;;;2.60;99.90;;;;;;4938188;29;20256;-81
2023/02/11 03:55:42;;;;;;;34.05;20.88;;;2.70;99.90;;;;;;4932845;29;20509;-80
2023/02/11 03:58:09;;;;;;;32.30;20.80;;;2.80;99.90;;;;;;4927780;29;20218;-80
2023/02/11 04:00:40;;;;;;;33.55;20.63;;;2.90;99.90;;;;;;4932879;29;20346;-80
2023/02/11 04:03:08;;;;;;;34.35;20.45;;;3.00;99.90;;;;;;4933983;29;20214;-81
2023/02/11 04:05:36;;;;;;;32.28;20.13;;;3.00;99.90;;;;;;4934719;29;20294;-80
2023/02/11 04:08:03;;;;;;;31.98;20.75;;;2.90;99.90;;;;;;4928942;29;20261;-80
2023/02/11 04:10:30;;;;;;;30.50;20.02;;;3.00;99.90;;;;;;4933231;29;20265;-80
2023/02/11 04:12:57;;;;;;;35.05;20.10;;;3.00;99.90;;;;;;4929152;29;20559;-80
2023/02/11 04:15:24;;;;;;;30.73;20.35;;;2.90;99.90;;;;;;4927177;29;20218;-81
2023/02/11 04:17:52;;;;;;;29.70;20.20;;;2.90;99.90;;;;;;4932171;29;20578;-80
2023/02/11 04:20:18;;;;;;;29.65;19.10;;;2.80;99.90;;;;;;4935026;29;20231;-80
2023/02/11 04:22:45;;;;;;;33.15;21.80;;;2.80;99.90;;;;;;4929759;29;20510;-81
2023/02/11 04:25:12;;;;;;;36.30;20.73;;;2.70;99.90;;;;;;4936267;29;20256;-80
2023/02/11 04:27:39;;;;;;;35.40;18.92;;;2.70;99.90;;;;;;4930611;29;20222;-80
2023/02/11 04:30:08;;;;;;;30.65;20.17;;;2.60;99.90;;;;;;4922210;29;20411;-80
2023/02/11 04:32:35;;;;;;;36.55;22.80;;;2.60;99.90;;;;;;4923149;29;20421;-80
2023/02/11 04:35:02;;;;;;;32.05;20.25;;;2.40;99.90;;;;;;4931759;29;20452;-79
2023/02/11 04:37:29;;;;;;;30.38;20.52;;;2.60;99.90;;;;;;4922128;29;20294;-80
2023/02/11 04:39:59;;;;;;;25.98;17.88;;;2.80;99.90;;;;;;4935186;29;20553;-80
2023/02/11 04:42:27;;;;;;;34.70;19.38;;;2.70;99.90;;;;;;4929830;29;20215;-80
2023/02/11 04:44:54;;;;;;;35.78;19.20;;;2.70;99.90;;;;;;4936914;29;20205;-80
2023/02/11 04:47:21;;;;;;;28.23;20.02;;;2.60;99.90;;;;;;4929791;29;20253;-80
2023/02/11 04:49:48;;;;;;;29.38;18.42;;;2.60;99.90;;;;;;4921570;29;20263;-80
2023/02/11 04:52:15;;;;;;;31.77;18.73;;;2.70;99.90;;;;;;4929885;29;20530;-79
2023/02/11 04:54:42;;;;;;;32.10;20.10;;;2.60;99.90;;;;;;4939469;29;20217;-81
2023/02/11 04:57:09;;;;;;;30.88;19.35;;;2.60;99.90;;;;;;4931480;29;20280;-79
2023/02/11 04:59:36;;;;;;;30.20;19.58;;;2.50;99.90;;;;;;4931026;29;20262;-80
2023/02/11 05:02:03;;;;;;;28.52;17.75;;;2.40;99.90;;;;;;4925826;29;20507;-80
2023/02/11 05:04:30;;;;;;;36.50;21.45;;;2.50;99.90;;;;;;4929418;29;20217;-81
2023/02/11 05:06:57;;;;;;;35.55;19.80;;;2.60;99.90;;;;;;4921696;29;20213;-82
2023/02/11 05:09:24;;;;;;;28.45;17.75;;;2.60;99.90;;;;;;4929095;29;20265;-81
2023/02/11 05:11:52;;;;;;;33.50;18.88;;;2.70;99.90;;;;;;4931571;29;20210;-80
2023/02/11 05:14:19;;;;;;;27.85;19.77;;;2.80;99.90;;;;;;4928455;29;20210;-79
2023/02/11 05:16:46;;;;;;;30.40;17.92;;;2.80;99.90;;;;;;4929056;29;20242;-79
2023/02/11 05:19:13;;;;;;;34.25;19.45;;;2.90;99.90;;;;;;4928698;29;20425;-81
2023/02/11 05:21:40;;;;;;;29.13;18.42;;;2.80;99.90;;;;;;4931593;29;20312;-81
2023/02/11 05:24:22;;;;;;;30.42;21.85;;;2.80;99.90;;;;;;4931148;29;20210;-80
2023/02/11 05:26:49;;;;;;;31.02;20.02;;;2.80;99.90;;;;;;4911238;29;20213;-80
2023/02/11 05:29:16;;;;;;;28.15;20.38;;;2.70;99.90;;;;;;4932823;29;20254;-81
2023/02/11 05:31:43;;;;;;;27.67;20.08;;;2.60;99.90;;;;;;4932225;29;20205;-81
2023/02/11 05:34:10;;;;;;;30.88;23.27;;;2.70;99.90;;;;;;4931243;29;20264;-80
2023/02/11 05:36:37;;;;;;;32.40;21.92;;;2.70;99.90;;;;;;4929887;29;20234;-82
2023/02/11 05:39:03;;;;;;;30.85;21.10;;;2.70;99.90;;;;;;4931290;29;20463;-82
2023/02/11 05:41:30;;;;;;;38.10;23.42;;;2.80;99.90;;;;;;4930897;29;20272;-81
2023/02/11 05:43:57;;;;;;;32.50;19.17;;;2.80;99.90;;;;;;4926905;29;20214;-82
2023/02/11 05:46:24;;;;;;;34.03;20.75;;;2.80;99.90;;;;;;4919802;29;20418;-81
2023/02/11 05:48:51;;;;;;;27.55;19.60;;;2.90;99.90;;;;;;4927492;29;20214;-79
2023/02/11 05:51:18;;;;;;;31.80;20.98;;;2.90;99.90;;;;;;4924115;29;20265;-80
2023/02/11 05:53:45;;;;;;;31.95;19.45;;;2.90;99.90;;;;;;4923350;29;20221;-81
2023/02/11 05:56:13;;;;;;;31.00;21.58;;;3.00;99.90;;;;;;4931764;29;20811;-80
2023/02/11 05:58:40;;;;;;;36.70;20.40;;;3.00;99.90;;;;;;4928259;29;20438;-80
2023/02/11 06:01:07;;;;;;;25.98;17.60;;;3.00;99.90;;;;;;4932135;29;20211;-80
2023/02/11 06:03:34;;;;;;;35.45;20.15;;;2.90;99.90;;;;;;4926100;29;20214;-80
2023/02/11 06:06:02;;;;;;;33.83;20.30;;;2.80;99.90;;;;;;4926812;29;20226;-80
2023/02/11 06:08:28;;;;;;;29.90;20.50;;;2.90;99.90;;;;;;4931398;29;20267;-80
2023/02/11 06:10:55;;;;;;;34.03;19.38;;;2.90;99.90;;;;;;4925930;29;20684;-81
2023/02/11 06:13:23;;;;;;;31.85;20.95;;;2.90;99.90;;;;;;4938053;29;20217;-80
2023/02/11 06:16:00;;;;;;;31.83;19.88;;;2.90;99.90;;;;;;4929008;29;20247;-79
2023/02/11 06:18:28;;;;;;;36.00;19.95;;;2.90;99.90;;;;;;4934321;29;20240;-80
2023/02/11 06:20:55;;;;;;;30.63;20.67;;;3.00;99.90;;;;;;4928491;29;20253;-80
2023/02/11 06:23:22;;;;;;;29.00;18.17;;;3.20;99.90;;;;;;4923364;29;20431;-81
2023/02/11 06:25:51;;;;;;;33.70;21.88;;;3.20;99.90;;;;;;4920485;29;20222;-81
2023/02/11 06:28:18;;;;;;;34.47;23.80;;;3.10;99.90;;;;;;4927164;29;20214;-79
2023/02/11 06:30:45;;;;;;;33.33;20.50;;;3.10;99.90;;;;;;4930264;29;20456;-81
2023/02/11 06:33:12;;;;;;;41.30;21.08;;;3.10;99.90;;;;;;4931538;29;20219;-79
2023/02/11 06:35:39;;;;;;;30.27;19.80;;;3.40;99.90;;;;;;4929932;29;20534;-80
2023/02/11 06:38:06;;;;;;;29.00;19.58;;;3.30;99.90;;;;;;4936023;29;20243;-80
2023/02/11 06:40:34;;;;;;;30.90;20.27;;;3.30;99.90;;;;;;4930812;29;20583;-80
2023/02/11 06:43:01;;;;;;;31.33;20.00;;;3.30;99.90;;;;;;4932742;29;20235;-81
2023/02/11 06:45:28;;;;;;;33.13;22.70;;;3.40;99.90;;;;;;4927228;29;20238;-80
2023/02/11 06:47:55;;;;;;;30.80;21.30;;;3.30;99.90;;;;;;4931364;29;20219;-82
2023/02/11 06:50:22;;;;;;;37.60;20.13;;;3.30;99.90;;;;;;4933105;29;20259;-81
2023/02/11 06:52:49;;;;;;;28.13;19.27;;;3.30;99.90;;;;;;4928301;29;20214;-81
2023/02/11 06:55:16;;;;;;;36.33;20.02;;;3.30;99.90;;;;;;4940036;29;20218;-78
2023/02/11 06:57:43;;;;;;;35.75;20.58;;;3.40;99.90;;;;;;4933663;29;20616;-81
2023/02/11 07:00:10;;;;;;;34.17;19.73;;;3.30;99.90;;;;;;4934033;29;20207;-81
2023/02/11 07:02:37;;;;;;;33.15;18.95;;;3.40;99.90;;;;;;4948976;29;20222;-80
2023/02/11 07:05:06;;;;;;;30.65;19.42;;;3.40;99.90;;;;;;4929667;29;20507;-81
2023/02/11 07:07:33;;;;;;;29.00;20.27;;;3.60;99.90;;;;;;4924060;29;20298;-81
2023/02/11 07:10:02;;;;;;;32.00;20.25;;;3.70;99.90;;;;;;4934635;29;20250;-79
2023/02/11 07:12:30;;;;;;;29.00;18.80;;;3.60;99.90;;;;;;4933532;29;20207;-80
2023/02/11 07:14:57;;;;;;;28.75;18.05;;;3.60;99.90;;;;;;4934676;29;20245;-80
2023/02/11 07:17:24;;;;;;;31.67;17.80;;;3.80;99.90;;;;;;4934079;29;20272;-80
2023/02/11 07:19:51;;;;;;;26.10;18.02;;;3.80;99.90;;;;;;4929547;29;20246;-80
2023/02/11 07:22:18;;;;;;;31.35;20.83;;;3.90;99.90;;;;;;4933541;29;20253;-78
2023/02/11 07:24:45;;;;;;;36.03;19.83;;;4.10;99.90;;;;;;4935847;29;20214;-81
2023/02/11 07:27:12;;;;;;;29.88;18.35;;;4.20;99.90;;;;;;4934485;29;20214;-81
2023/02/11 07:29:40;;;;;;;28.65;17.83;;;4.40;99.90;;;;;;4931767;29;20215;-80
2023/02/11 07:32:07;;;;;;;28.50;19.33;;;4.50;99.90;;;;;;4935737;29;20210;-79
2023/02/11 07:34:35;;;;;;;35.58;18.77;;;4.40;99.90;;;;;;4929630;29;20241;-79
2023/02/11 07:37:04;;;;;;;27.80;17.98;;;4.40;99.90;;;;;;4930979;29;20409;-80
2023/02/11 07:39:31;;;;;;;25.02;16.83;;;4.40;99.90;;;;;;4930799;29;20227;-80
2023/02/11 07:41:59;;;;;;;29.42;17.95;;;4.30;99.90;;;;;;4930731;29;20264;-81
2023/02/11 07:44:26;;;;;;;31.35;17.00;;;4.40;99.90;;;;;;4929484;29;20263;-80
2023/02/11 07:46:53;;;;;;;37.35;17.45;;;4.50;99.90;;;;;;4922680;29;20211;-81
2023/02/11 07:49:20;;;;;;;22.95;15.65;;;4.50;99.90;;;;;;4921785;29;20775;-80
2023/02/11 07:51:48;;;;;;;24.63;14.48;;;4.50;99.90;;;;;;4927791;29;20208;-80
2023/02/11 07:54:14;;;;;;;24.25;16.52;;;4.50;99.90;;;;;;4936934;29;20218;-80
2023/02/11 07:56:44;;;;;;;28.38;16.45;;;4.60;99.90;;;;;;4933109;29;20225;-80
2023/02/11 07:59:11;;;;;;;26.33;16.88;;;4.80;99.90;;;;;;4936422;29;20482;-81
2023/02/11 08:01:39;;;;;;;25.25;15.13;;;4.80;99.90;;;;;;4923563;29;20267;-81
2023/02/11 08:04:06;;;;;;;21.75;15.85;;;4.80;99.90;;;;;;4930362;29;20217;-81
2023/02/11 08:06:34;;;;;;;25.33;16.60;;;4.70;99.90;;;;;;4929159;29;20216;-80
2023/02/11 08:09:06;;;;;;;25.17;17.40;;;4.80;99.90;;;;;;4931174;29;20259;-81
2023/02/11 08:11:33;;;;;;;29.13;17.33;;;4.80;99.90;;;;;;4924159;29;20283;-81
2023/02/11 08:14:01;;;;;;;35.55;17.30;;;4.80;99.90;;;;;;4924789;29;20208;-81
2023/02/11 08:16:34;;;;;;;25.77;16.70;;;4.90;99.90;;;;;;4925815;29;20216;-83
2023/02/11 08:19:05;;;;;;;22.35;15.68;;;4.90;99.90;;;;;;4932294;29;20231;-81
2023/02/11 08:21:32;;;;;;;23.88;15.82;;;5.00;99.90;;;;;;4942551;28;20196;-82
2023/02/11 08:24:01;;;;;;;24.00;16.42;;;5.00;99.90;;;;;;4948919;28;20244;-80
2023/02/11 08:26:33;;;;;;;25.48;16.23;;;4.80;99.90;;;;;;4942212;28;20240;-80
2023/02/11 08:29:05;;;;;;;27.52;17.75;;;4.80;99.90;;;;;;4941844;29;20255;-80
2023/02/11 08:31:35;;;;;;;27.48;16.30;;;4.90;99.90;;;;;;4937752;29;20232;-80
2023/02/11 08:34:02;;;;;;;31.25;16.25;;;4.90;99.90;;;;;;4939601;29;20216;-79
2023/02/11 08:36:34;;;;;;;37.80;18.20;;;4.80;99.90;;;;;;4939505;29;20200;-80
2023/02/11 08:39:05;;;;;;;25.58;14.93;;;5.00;99.90;;;;;;4943302;29;20236;-80
2023/02/11 08:41:47;;;;;;;26.50;16.58;;;4.90;99.90;;;;;;4942175;28;20195;-80
2023/02/11 08:44:15;;;;;;;21.90;15.50;;;5.10;99.90;;;;;;4938605;29;20240;-80
2023/02/11 08:46:43;;;;;;;29.08;16.70;;;5.10;99.90;;;;;;4942601;29;20445;-83
2023/02/11 08:49:09;;;;;;;32.20;17.75;;;5.10;99.90;;;;;;4939097;29;20220;-79
2023/02/11 08:51:37;;;;;;;26.60;17.73;;;5.30;99.90;;;;;;4938609;29;20212;-82
2023/02/11 08:54:08;;;;;;;25.52;15.27;;;5.30;99.90;;;;;;4929260;29;20208;-83
2023/02/11 08:56:36;;;;;;;23.42;15.85;;;5.30;99.90;;;;;;4936596;29;20239;-83
2023/02/11 08:59:03;;;;;;;26.50;16.33;;;5.30;99.90;;;;;;4939499;29;20234;-84
2023/02/11 09:01:33;;;;;;;29.15;15.90;;;5.40;99.90;;;;;;4932181;29;20456;-83
2023/02/11 09:04:02;;;;;;;29.88;16.50;;;5.30;99.90;;;;;;4926125;29;20371;-82
2023/02/11 09:06:29;;;;;;;25.20;15.77;;;5.40;99.90;;;;;;4929525;29;20801;-82
2023/02/11 09:08:57;;;;;;;24.33;15.30;;;5.50;99.90;;;;;;4929888;29;20288;-81
2023/02/11 09:11:29;;;;;;;26.48;16.23;;;5.50;99.90;;;;;;4931709;29;20251;-84
2023/02/11 09:13:56;;;;;;;23.25;15.02;;;5.70;99.90;;;;;;4929145;29;20239;-81
2023/02/11 09:16:30;;;;;;;22.95;16.10;;;6.00;99.90;;;;;;4930197;29;20233;-81
2023/02/11 09:19:00;;;;;;;31.48;17.95;;;6.20;99.90;;;;;;4925774;29;20308;-80
2023/02/11 09:21:29;;;;;;;20.67;14.13;;;6.30;99.90;;;;;;4924486;29;20504;-81
2023/02/11 09:23:58;;;;;;;22.95;14.07;;;6.20;99.90;;;;;;4938054;29;20234;-84
2023/02/11 09:26:30;;;;;;;26.88;17.92;;;6.20;99.90;;;;;;4939087;29;20213;-81
2023/02/11 09:28:58;;;;;;;23.73;15.65;;;6.10;99.90;;;;;;4926898;29;20211;-83
2023/02/11 09:31:27;;;;;;;21.10;14.02;;;6.30;99.90;;;;;;4932497;29;20242;-82
2023/02/11 09:34:01;;;;;;;24.27;14.50;;;6.20;99.90;;;;;;4930933;29;20238;-81
2023/02/11 09:36:33;;;;;;;30.83;18.05;;;6.40;99.90;;;;;;4920898;29;20479;-82
2023/02/11 09:39:02;;;;;;;26.15;16.90;;;6.50;99.90;;;;;;4923257;29;20240;-83
2023/02/11 09:42:04;;;;;;;22.98;14.88;;;6.60;99.90;;;;;;4928209;29;20251;-83
2023/02/11 09:44:35;;;;;;;31.25;16.35;;;6.50;99.90;;;;;;4924716;29;20212;-84
2023/02/11 09:47:26;;;;;;;19.23;13.30;;;6.70;99.90;;;;;;4922583;29;20249;-81
2023/02/11 09:50:20;;;;;;;21.30;14.82;;;6.90;99.90;;;;;;4923184;29;20215;-81
2023/02/11 09:53:02;;;;;;;22.65;13.35;;;7.20;99.90;;;;;;4921983;29;20243;-82
2023/02/11 09:55:35;;;;;;;24.70;15.73;;;7.30;99.90;;;;;;4927871;29;20574;-82
2023/02/11 09:58:20;;;;;;;18.08;13.13;;;7.20;99.90;;;;;;4925289;29;20236;-82
2023/02/11 10:01:05;;;;;;;22.65;13.00;;;7.50;99.90;;;;;;4927365;29;20511;-82
2023/02/11 10:04:09;;;;;;;22.15;13.95;;;7.50;99.90;;;;;;4917771;29;20209;-83
2023/02/11 10:06:41;;;;;;;23.98;12.95;;;7.40;99.90;;;;;;4930092;29;20559;-80
2023/02/11 10:09:14;;;;;;;19.98;13.32;;;7.50;99.90;;;;;;4928384;29;20228;-81
2023/02/11 10:12:03;;;;;;;19.90;12.50;;;7.40;99.90;;;;;;4934830;29;20223;-80
2023/02/11 10:15:07;;;;;;;19.92;13.88;;;7.30;99.90;;;;;;4920916;29;20207;-82
2023/02/11 10:18:09;;;;;;;15.07;11.35;;;7.10;99.90;;;;;;4920689;29;20201;-82
2023/02/11 10:21:06;;;;;;;18.40;13.50;;;7.00;99.90;;;;;;4924414;29;20260;-81
2023/02/11 10:23:38;;;;;;;17.00;13.82;;;6.90;99.90;;;;;;4922685;29;20214;-81
2023/02/11 10:26:13;;;;;;;20.48;13.80;;;6.90;99.90;;;;;;4928648;29;20216;-79
2023/02/11 10:28:43;;;;;;;17.30;11.75;;;6.90;99.90;;;;;;4932877;29;20189;-81
2023/02/11 10:31:17;;;;;;;18.52;11.85;;;7.00;99.90;;;;;;4926819;29;20278;-81
2023/02/11 10:33:56;;;;;;;22.45;14.75;;;7.10;99.90;;;;;;4929227;29;20234;-80
2023/02/11 10:36:27;;;;;;;19.95;13.00;;;7.10;99.90;;;;;;4926424;29;20208;-80
2023/02/11 10:38:58;;;;;;;21.15;13.13;;;7.20;99.90;;;;;;4925883;29;20295;-81
2023/02/11 10:41:35;;;;;;;21.60;13.95;;;7.20;99.90;;;;;;4924550;29;20206;-81
2023/02/11 10:44:05;;;;;;;21.15;13.68;;;7.20;99.90;;;;;;4923857;29;20260;-80
2023/02/11 10:46:36;;;;;;;18.98;12.75;;;7.30;99.90;;;;;;4924664;29;20217;-80
2023/02/11 10:49:04;;;;;;;21.70;14.50;;;7.30;99.90;;;;;;4926476;29;20492;-81
2023/02/11 10:51:33;;;;;;;21.33;14.20;;;7.20;99.90;;;;;;4925128;29;20206;-80
2023/02/11 10:54:03;;;;;;;24.90;16.10;;;7.10;99.90;;;;;;4916593;29;20212;-80
2023/02/11 10:56:34;;;;;;;21.15;15.20;;;7.10;99.90;;;;;;4924720;29;20215;-80
2023/02/11 10:59:14;;;;;;;24.90;16.08;;;7.10;99.90;;;;;;4920509;29;20275;-81
2023/02/11 11:01:50;;;;;;;18.13;12.35;;;7.00;99.90;;;;;;4923632;29;20256;-81
2023/02/11 11:04:29;;;;;;;23.02;13.70;;;6.90;99.90;;;;;;4918881;29;20212;-81
2023/02/11 11:07:18;;;;;;;19.23;12.65;;;6.80;99.90;;;;;;4923859;29;20294;-81
2023/02/11 11:10:07;;;;;;;17.15;12.65;;;6.80;99.90;;;;;;4919964;29;20237;-81
2023/02/11 11:12:38;;;;;;;24.48;14.30;;;6.80;99.90;;;;;;4921048;29;20216;-82
2023/02/11 11:15:15;;;;;;;22.27;14.93;;;6.70;99.90;;;;;;4930379;29;20204;-81
2023/02/11 11:17:42;;;;;;;27.52;16.73;;;6.70;99.90;;;;;;4925120;29;20246;-81
2023/02/11 11:20:32;;;;;;;24.05;13.90;;;6.70;99.90;;;;;;4927587;29;20216;-82
2023/02/11 11:23:21;;;;;;;25.67;15.18;;;6.60;99.90;;;;;;4934205;29;20521;-78
2023/02/11 11:26:03;;;;;;;23.60;15.52;;;6.70;99.90;;;;;;4921304;29;20511;-81
2023/02/11 11:28:40;;;;;;;22.38;14.68;;;6.80;99.90;;;;;;4929111;29;20211;-81
2023/02/11 11:31:17;;;;;;;27.60;14.52;;;6.80;99.90;;;;;;4925883;29;20208;-81
2023/02/11 11:33:46;;;;;;;24.35;14.40;;;6.80;99.90;;;;;;4931558;29;20646;-81
2023/02/11 11:36:19;;;;;;;21.90;15.68;;;6.90;99.90;;;;;;4932121;29;20270;-80
2023/02/11 11:38:57;;;;;;;21.05;15.55;;;7.10;99.90;;;;;;4922295;29;20224;-80
2023/02/11 11:41:27;;;;;;;22.25;15.75;;;7.30;99.90;;;;;;4924293;29;20264;-82
2023/02/11 11:43:55;;;;;;;24.95;15.73;;;7.40;99.90;;;;;;4928007;29;20564;-82
2023/02/11 11:46:27;;;;;;;21.48;14.60;;;7.40;99.90;;;;;;4930240;29;20260;-81
2023/02/11 11:49:00;;;;;;;20.58;15.45;;;7.40;99.90;;;;;;4921004;29;20248;-81
2023/02/11 11:51:28;;;;;;;22.00;14.82;;;7.60;99.90;;;;;;4919087;29;20342;-82
2023/02/11 11:54:11;;;;;;;23.60;14.05;;;7.60;99.90;;;;;;4922905;29;20255;-79
2023/02/11 11:57:09;;;;;;;22.88;15.02;;;7.50;99.90;;;;;;4928571;29;20208;-82
2023/02/11 11:59:37;;;;;;;25.23;14.75;;;7.50;99.90;;;;;;4926576;29;20308;-81
2023/02/11 12:02:28;;;;;;;27.15;15.73;;;7.40;99.90;;;;;;4934007;29;20204;-80
2023/02/11 12:05:21;;;;;;;24.80;16.30;;;7.40;99.90;;;;;;4918408;29;20221;-80
2023/02/11 12:08:10;;;;;;;27.27;18.40;;;7.50;99.90;;;;;;4925710;29;20205;-80
2023/02/11 12:10:48;;;;;;;26.70;15.73;;;7.50;99.90;;;;;;4925252;29;20212;-81
2023/02/11 12:13:46;;;;;;;23.60;16.05;;;7.40;99.90;;;;;;4923627;29;20572;-79
2023/02/11 12:16:32;;;;;;;22.50;14.80;;;7.30;99.90;;;;;;4920975;29;20210;-81
2023/02/11 12:19:13;;;;;;;24.23;14.95;;;7.20;99.90;;;;;;4932158;29;20235;-80
2023/02/11 12:21:52;;;;;;;23.23;14.30;;;7.20;99.90;;;;;;4926601;29;20208;-78
2023/02/11 12:24:30;;;;;;;20.73;15.02;;;7.20;99.90;;;;;;4923496;29;20213;-79
2023/02/11 12:27:02;;;;;;;28.38;16.80;;;7.20;99.90;;;;;;4922278;29;20495;-81
2023/02/11 12:29:49;;;;;;;21.98;14.25;;;7.20;99.90;;;;;;4920571;29;20218;-82
2023/02/11 12:32:24;;;;;;;22.08;14.85;;;7.30;99.90;;;;;;4924994;29;20201;-79
2023/02/11 12:35:29;;;;;;;26.13;14.82;;;7.50;99.90;;;;;;4923008;29;20215;-80
2023/02/11 12:38:14;;;;;;;20.75;14.77;;;7.50;99.90;;;;;;4919500;29;20217;-79
2023/02/11 12:40:51;;;;;;;23.52;14.93;;;7.60;99.90;;;;;;4918939;29;20242;-80
2023/02/11 12:43:21;;;;;;;28.10;15.68;;;7.60;99.90;;;;;;4922444;29;20235;-82
2023/02/11 12:46:08;;;;;;;25.92;15.43;;;7.60;99.90;;;;;;4919410;29;20214;-79
2023/02/11 12:48:57;;;;;;;24.35;16.13;;;7.70;99.90;;;;;;4918612;29;20257;-79
2023/02/11 12:51:50;;;;;;;23.92;15.55;;;7.60;99.90;;;;;;4920767;29;20209;-80
2023/02/11 12:54:28;;;;;;;19.35;13.82;;;7.50;99.90;;;;;;4914995;29;20722;-78
2023/02/11 12:57:22;;;;;;;23.40;14.68;;;7.30;99.90;;;;;;4922875;29;20209;-81
2023/02/11 13:00:01;;;;;;;20.50;14.32;;;7.30;99.90;;;;;;4916552;29;20232;-80
2023/02/11 13:03:01;;;;;;;25.83;14.77;;;7.20;99.90;;;;;;4924293;29;20216;-81
2023/02/11 13:05:45;;;;;;;21.77;13.75;;;7.10;99.90;;;;;;4925886;29;20216;-80